Time;durP1;ratioP1;P1;durP2;ratioP2;P2;SDS_P1;SDS_P2;PMS_P1;PMS_P2;Temp;Humidity;BMP_temperature;BMP_pressure;BME280_temperature;BME280_humidity;BME280_pressure;Samples;Min_cycle;Max_cycle;Signal;HPM_P1;HPM_P2
2023/09/08 00:02:21;;;;;;;;;26.33;26.33;;;;;27.70;51.53;100797.25;4880087;28;47327;-80
2023/09/08 00:04:46;;;;;;;;;23.67;23.67;;;;;27.57;51.88;100793.44;4879268;28;45165;-81
2023/09/08 00:07:13;;;;;;;;;26.33;24.33;;;;;27.62;52.20;100802.28;4895282;29;44701;-80
2023/09/08 00:09:38;;;;;;;;;27.33;27.33;;;;;27.49;52.26;100797.50;4881131;29;44936;-80
2023/09/08 00:12:04;;;;;;;;;25.33;25.00;;;;;27.48;52.32;100794.84;4880095;29;47015;-80
2023/09/08 00:14:30;;;;;;;;;27.00;26.33;;;;;27.43;51.92;100792.38;4881983;29;45398;-80
2023/09/08 00:16:55;;;;;;;;;25.67;25.00;;;;;27.42;52.49;100790.59;4881290;29;45858;-80
2023/09/08 00:19:21;;;;;;;;;23.67;23.67;;;;;27.38;52.58;100788.13;4884235;29;44831;-80
2023/09/08 00:21:49;;;;;;;;;26.33;25.67;;;;;27.45;52.22;100790.44;4900002;28;45235;-81
2023/09/08 00:24:16;;;;;;;;;26.33;24.00;;;;;27.32;52.45;100789.34;4900714;28;44827;-80
2023/09/08 00:26:41;;;;;;;;;28.00;25.33;;;;;27.28;52.29;100783.16;4883441;29;44771;-81
2023/09/08 00:29:07;;;;;;;;;23.00;23.00;;;;;27.28;52.46;100785.91;4899851;28;45066;-81
2023/09/08 00:31:37;;;;;;;;;23.67;23.00;;;;;27.29;52.67;100787.69;4897838;28;47078;-81
2023/09/08 00:34:06;;;;;;;;;26.00;24.33;;;;;27.42;52.21;100789.72;4899231;28;44692;-81
2023/09/08 00:36:33;;;;;;;;;27.00;26.67;;;;;27.38;52.96;100794.47;4882232;29;45324;-81
2023/09/08 00:38:59;;;;;;;;;24.33;24.33;;;;;27.36;52.50;100792.81;4882530;28;44811;-81
2023/09/08 00:41:25;;;;;;;;;27.00;24.67;;;;;27.20;52.91;100779.06;4899358;28;45178;-81
2023/09/08 00:43:50;;;;;;;;;28.00;27.00;;;;;27.30;52.79;100794.00;4882271;29;44881;-81
2023/09/08 00:46:17;;;;;;;;;27.00;24.33;;;;;27.32;53.03;100795.69;4881609;28;44812;-81
2023/09/08 00:48:51;;;;;;;;;26.00;25.67;;;;;27.25;52.97;100794.28;4882082;28;44853;-81
2023/09/08 00:51:18;;;;;;;;;26.00;25.00;;;;;27.32;52.90;100783.88;4881663;28;47478;-80
2023/09/08 00:53:44;;;;;;;;;22.00;22.00;;;;;27.22;52.77;100788.94;4881684;28;45091;-80
2023/09/08 00:56:10;;;;;;;;;26.67;26.33;;;;;27.26;52.40;100789.69;4864502;29;44824;-80
2023/09/08 00:58:36;;;;;;;;;28.33;26.33;;;;;27.25;52.68;100793.41;4897441;29;45333;-80
2023/09/08 01:01:02;;;;;;;;;25.00;25.00;;;;;27.20;53.34;100799.06;4861620;29;45503;-80
2023/09/08 01:03:28;;;;;;;;;27.33;26.33;;;;;27.11;53.29;100777.72;4872885;29;44850;-80
2023/09/08 01:05:55;;;;;;;;;27.00;27.00;;;;;27.27;53.09;100786.00;4872651;29;45490;-80
2023/09/08 01:08:20;;;;;;;;;28.33;25.00;;;;;27.14;53.33;100788.47;4890178;28;45339;-80
2023/09/08 01:10:47;;;;;;;;;26.33;25.67;;;;;27.11;53.42;100781.34;4888091;28;45673;-79
2023/09/08 01:13:14;;;;;;;;;26.33;26.33;;;;;27.18;53.18;100790.06;4872667;29;44748;-80
2023/09/08 01:15:39;;;;;;;;;30.33;30.00;;;;;27.01;53.59;100785.53;4888896;28;45423;-80
2023/09/08 01:18:05;;;;;;;;;28.67;28.67;;;;;27.04;53.63;100789.94;4889732;29;45480;-79
2023/09/08 01:20:49;;;;;;;;;26.33;26.33;;;;;27.14;53.76;100780.28;4888591;29;46212;-79
2023/09/08 01:23:21;;;;;;;;;29.33;26.00;;;;;27.05;53.70;100769.88;4873560;29;45369;-80
2023/09/08 01:26:07;;;;;;;;;22.33;22.33;;;;;27.09;53.27;100783.28;4889382;29;45461;-79
2023/09/08 01:28:33;;;;;;;;;25.67;25.67;;;;;26.96;54.04;100787.63;4873722;29;44822;-79
2023/09/08 01:31:00;;;;;;;;;32.00;28.00;;;;;27.04;53.79;100787.22;4872037;29;45583;-79
2023/09/08 01:33:27;;;;;;;;;24.67;24.00;;;;;27.05;53.82;100792.59;4889008;29;45316;-79
2023/09/08 01:35:53;;;;;;;;;25.33;25.33;;;;;26.96;54.34;100792.19;4889937;29;45470;-79
2023/09/08 01:38:23;;;;;;;;;26.33;25.67;;;;;27.07;53.46;100784.34;4857111;29;45332;-79
2023/09/08 01:40:49;;;;;;;;;29.67;29.67;;;;;26.93;54.06;100794.13;4856974;29;46165;-80
2023/09/08 01:43:14;;;;;;;;;24.67;24.67;;;;;26.88;54.45;100785.28;4857053;29;45575;-80
2023/09/08 01:45:41;;;;;;;;;24.33;24.33;;;;;26.93;53.85;100788.66;4871968;29;45474;-80
2023/09/08 01:48:07;;;;;;;;;20.67;19.67;;;;;26.82;54.32;100785.63;4890343;29;45437;-80
2023/09/08 01:50:33;;;;;;;;;26.67;26.67;;;;;26.85;53.88;100792.78;4890411;29;45566;-80
2023/09/08 01:52:58;;;;;;;;;26.00;26.00;;;;;26.86;53.82;100795.41;4889445;29;44912;-80
2023/09/08 01:55:29;;;;;;;;;31.67;28.00;;;;;26.92;54.48;100786.94;4887875;29;45392;-79
2023/09/08 01:57:54;;;;;;;;;28.67;27.00;;;;;26.80;54.13;100790.28;4870889;29;45488;-80
2023/09/08 02:00:20;;;;;;;;;27.33;23.67;;;;;26.76;54.55;100793.25;4888210;29;45546;-80
2023/09/08 02:02:45;;;;;;;;;29.00;27.67;;;;;26.73;54.76;100788.84;4871290;29;45430;-81
2023/09/08 02:05:11;;;;;;;;;25.67;25.67;;;;;26.72;54.82;100789.81;4886099;29;45238;-81
2023/09/08 02:07:36;;;;;;;;;29.00;29.00;;;;;26.71;54.90;100790.78;4889201;29;44940;-79
2023/09/08 02:10:02;;;;;;;;;29.33;28.67;;;;;26.70;54.71;100783.53;4871575;29;45418;-79
2023/09/08 02:12:27;;;;;;;;;29.00;29.00;;;;;26.64;54.78;100786.59;4888164;29;45521;-79
2023/09/08 02:14:52;;;;;;;;;24.67;24.00;;;;;26.65;55.13;100793.81;4871973;29;44918;-79
2023/09/08 02:17:18;;;;;;;;;31.00;25.67;;;;;26.65;55.32;100793.81;4889145;29;44981;-80
2023/09/08 02:19:48;;;;;;;;;28.00;28.00;;;;;26.74;55.43;100793.31;4889610;29;45391;-80
2023/09/08 02:22:14;;;;;;;;;32.00;30.67;;;;;26.59;55.62;100799.59;4888968;29;45325;-80
2023/09/08 02:24:39;;;;;;;;;27.67;27.00;;;;;26.55;55.19;100793.38;4888780;29;45340;-79
2023/09/08 02:27:05;;;;;;;;;26.33;25.33;;;;;26.48;55.34;100792.84;4872000;29;44944;-79
2023/09/08 02:29:31;;;;;;;;;28.33;25.33;;;;;26.52;55.57;100799.91;4888780;29;45589;-79
2023/09/08 02:31:58;;;;;;;;;25.67;22.67;;;;;26.44;55.63;100799.41;4871909;29;45418;-80
2023/09/08 02:34:26;;;;;;;;;25.33;24.33;;;;;26.42;56.12;100804.06;4871625;29;45494;-81
2023/09/08 02:36:52;;;;;;;;;26.67;24.67;;;;;26.43;55.63;100803.06;4888780;29;45390;-81
2023/09/08 02:39:18;;;;;;;;;27.67;26.00;;;;;26.36;55.55;100793.47;4870431;29;47841;-81
2023/09/08 02:41:46;;;;;;;;;24.67;23.33;;;;;26.50;56.00;100795.44;4869181;29;45377;-81
2023/09/08 02:44:21;;;;;;;;;22.33;21.67;;;;;26.46;55.95;100797.47;4870244;29;45413;-81
2023/09/08 02:46:47;;;;;;;;;24.00;24.00;;;;;26.32;55.80;100808.22;4870217;29;45462;-82
2023/09/08 02:49:12;;;;;;;;;28.33;28.00;;;;;26.30;55.86;100800.09;4870046;29;47082;-79
2023/09/08 02:51:38;;;;;;;;;27.67;25.00;;;;;26.26;55.91;100792.16;4870730;29;45454;-81
2023/09/08 02:54:04;;;;;;;;;24.00;24.00;;;;;26.37;56.43;100800.66;4872213;29;45699;-80
2023/09/08 02:56:29;;;;;;;;;24.33;23.67;;;;;26.28;56.33;100802.03;4856370;29;45227;-80
2023/09/08 02:58:55;;;;;;;;;27.00;26.00;;;;;26.29;56.56;100805.63;4871572;29;46570;-81
2023/09/08 03:01:20;;;;;;;;;28.33;27.00;;;;;26.27;56.68;100799.38;4872017;29;45528;-80
2023/09/08 03:03:47;;;;;;;;;26.67;25.67;;;;;26.22;56.95;100785.06;4871609;29;45432;-80
2023/09/08 03:06:14;;;;;;;;;22.67;22.67;;;;;26.25;57.02;100807.63;4888498;29;45496;-80
2023/09/08 03:08:40;;;;;;;;;26.33;26.00;;;;;26.19;56.82;100805.19;4870272;29;46033;-80
2023/09/08 03:11:05;;;;;;;;;26.00;26.00;;;;;26.19;56.97;100797.03;4888119;29;45754;-80
2023/09/08 03:13:34;;;;;;;;;22.67;22.67;;;;;26.27;56.72;100799.38;4889479;29;45404;-80
2023/09/08 03:16:05;;;;;;;;;27.67;27.67;;;;;26.32;57.11;100797.31;4872261;29;44862;-80
2023/09/08 03:18:36;;;;;;;;;28.67;27.67;;;;;26.22;56.67;100796.88;4887221;29;45356;-80
2023/09/08 03:21:08;;;;;;;;;29.67;29.33;;;;;26.13;57.19;100787.31;4855905;29;45463;-81
2023/09/08 03:23:41;;;;;;;;;29.00;27.00;;;;;26.17;57.34;100798.06;4855452;29;45409;-80
2023/09/08 03:26:09;;;;;;;;;24.33;23.67;;;;;26.13;57.76;100790.03;4871228;29;45396;-79
2023/09/08 03:28:35;;;;;;;;;33.33;29.67;;;;;26.10;58.06;100792.94;4871066;29;45557;-79
2023/09/08 03:31:02;;;;;;;;;29.33;26.67;;;;;26.05;58.35;100788.66;4897736;28;45529;-81
2023/09/08 03:33:34;;;;;;;;;27.00;25.67;;;;;26.03;58.63;100791.44;4900636;29;45453;-81
2023/09/08 03:35:59;;;;;;;;;27.00;27.00;;;;;26.00;58.53;100786.16;4901120;29;44893;-81
2023/09/08 03:38:25;;;;;;;;;28.33;28.33;;;;;25.98;58.55;100789.94;4898593;29;45782;-81
2023/09/08 03:40:50;;;;;;;;;29.33;28.33;;;;;26.00;58.85;100790.75;4883287;29;45307;-81
2023/09/08 03:43:19;;;;;;;;;26.00;24.67;;;;;26.12;59.34;100791.00;4883404;29;45276;-80
2023/09/08 03:51:01;;;;;;;;;29.33;29.33;;;;;26.16;58.45;100775.38;5818735;23;46934;-81
2023/09/08 03:53:27;;;;;;;;;29.67;26.67;;;;;26.03;58.97;100785.13;4917663;28;44811;-81
2023/09/08 03:55:56;;;;;;;;;29.33;27.00;;;;;26.06;58.79;100783.13;4921645;28;44783;-80
2023/09/08 03:58:22;;;;;;;;;27.67;26.33;;;;;26.05;59.08;100784.09;4921959;28;46809;-81
2023/09/08 04:00:50;;;;;;;;;30.33;26.00;;;;;26.08;58.64;100783.06;4922677;28;44800;-81
2023/09/08 04:03:18;;;;;;;;;32.00;27.33;;;;;26.06;59.01;100788.59;4905378;29;44930;-81
2023/09/08 04:05:43;;;;;;;;;26.67;25.33;;;;;26.07;59.11;100782.16;4906683;28;44828;-81
2023/09/08 04:08:10;;;;;;;;;26.67;25.33;;;;;26.14;58.75;100778.19;4923275;28;45090;-80
2023/09/08 04:10:35;;;;;;;;;26.00;25.00;;;;;26.05;58.52;100784.09;4923098;28;44774;-81
2023/09/08 04:13:01;;;;;;;;;27.67;27.67;;;;;26.05;58.59;100783.22;4907174;28;44840;-80
2023/09/08 04:15:27;;;;;;;;;25.67;25.67;;;;;26.05;58.41;100777.75;4923335;28;44882;-80
2023/09/08 04:17:52;;;;;;;;;30.00;28.00;;;;;26.02;58.50;100773.34;4921772;28;47310;-80
2023/09/08 04:20:18;;;;;;;;;27.67;25.67;;;;;26.09;58.35;100785.69;4920322;28;44811;-80
2023/09/08 04:22:47;;;;;;;;;25.67;25.67;;;;;26.24;58.65;100781.34;4920439;28;44983;-80
2023/09/08 04:25:13;;;;;;;;;25.67;25.67;;;;;26.07;58.47;100782.16;4921497;28;44880;-80
2023/09/08 04:27:40;;;;;;;;;27.33;26.33;;;;;26.07;58.73;100787.63;4920159;28;45059;-80
2023/09/08 04:30:06;;;;;;;;;29.33;27.67;;;;;26.08;58.63;100783.06;4903194;28;44878;-80
2023/09/08 04:32:33;;;;;;;;;24.33;23.00;;;;;26.00;58.09;100786.16;4903695;28;44852;-81
2023/09/08 04:34:58;;;;;;;;;28.00;25.67;;;;;26.00;58.08;100780.72;4902667;28;44845;-81
2023/09/08 04:37:24;;;;;;;;;25.67;24.67;;;;;26.01;58.81;100790.66;4917684;28;45510;-81
2023/09/08 04:39:49;;;;;;;;;27.33;25.33;;;;;25.98;58.58;100779.91;4919755;29;44792;-80
2023/09/08 04:42:15;;;;;;;;;32.33;30.00;;;;;25.92;58.41;100778.38;4913783;23;46708;-80
2023/09/08 04:44:41;;;;;;;;;27.33;27.33;;;;;26.01;58.56;100796.09;4900786;28;44844;-80
2023/09/08 04:47:06;;;;;;;;;23.67;22.33;;;;;25.96;58.71;100784.56;4884574;29;46692;-82
2023/09/08 04:49:33;;;;;;;;;27.00;25.67;;;;;26.11;58.44;100791.94;4884671;29;44814;-80
2023/09/08 04:51:58;;;;;;;;;28.33;26.67;;;;;25.99;58.75;100787.13;4899536;28;44761;-80
2023/09/08 04:54:26;;;;;;;;;26.67;25.00;;;;;26.02;58.57;100784.25;4902763;28;44821;-80
2023/09/08 04:56:53;;;;;;;;;26.67;26.00;;;;;25.95;58.62;100771.88;4900379;28;47272;-80
2023/09/08 04:59:19;;;;;;;;;27.67;26.67;;;;;25.97;59.05;100790.88;4903226;28;44828;-80
2023/09/08 05:01:44;;;;;;;;;24.33;24.00;;;;;25.94;58.89;100790.06;4885515;28;44741;-80
2023/09/08 05:04:13;;;;;;;;;25.67;25.67;;;;;26.06;59.27;100796.75;4885871;28;45205;-81
2023/09/08 05:06:43;;;;;;;;;23.67;23.67;;;;;26.05;59.15;100780.47;4885525;29;47000;-81
2023/09/08 05:09:08;;;;;;;;;25.00;25.00;;;;;25.89;59.16;100786.63;4901503;28;44822;-81
2023/09/08 05:11:33;;;;;;;;;25.00;25.00;;;;;25.92;59.37;100793.84;4886903;29;44876;-81
2023/09/08 05:14:01;;;;;;;;;24.33;24.33;;;;;25.95;59.05;100796.41;4886813;28;44844;-80
2023/09/08 05:16:37;;;;;;;;;24.67;24.67;;;;;25.95;59.29;100793.66;4902870;28;45224;-81
2023/09/08 05:19:06;;;;;;;;;26.67;26.67;;;;;26.13;59.02;100798.22;4900813;28;44798;-80
2023/09/08 05:21:36;;;;;;;;;27.00;26.33;;;;;25.97;59.18;100782.72;4901623;28;44777;-81
2023/09/08 05:24:03;;;;;;;;;23.67;23.67;;;;;26.06;59.10;100799.50;4883109;29;45044;-81
2023/09/08 05:26:28;;;;;;;;;24.67;23.67;;;;;26.03;59.06;100791.44;4883152;29;45029;-82
2023/09/08 05:28:55;;;;;;;;;24.33;23.00;;;;;26.03;58.97;100791.44;4866850;29;44882;-81
2023/09/08 05:31:21;;;;;;;;;23.00;23.00;;;;;26.18;59.17;100799.81;4883749;29;44970;-81
2023/09/08 05:33:48;;;;;;;;;28.33;27.00;;;;;26.17;59.22;100798.06;4867424;29;44914;-81
2023/09/08 05:36:13;;;;;;;;;27.00;25.67;;;;;26.10;59.02;100797.50;4883865;29;45501;-81
2023/09/08 05:38:39;;;;;;;;;28.00;28.00;;;;;26.18;59.31;100805.28;4883888;29;44752;-81
2023/09/08 05:41:04;;;;;;;;;28.00;27.33;;;;;26.09;59.33;100791.16;4883500;29;44722;-81
2023/09/08 05:43:30;;;;;;;;;31.00;28.67;;;;;26.20;59.42;100795.16;4884191;29;44748;-81
2023/09/08 05:45:55;;;;;;;;;30.00;29.00;;;;;26.24;59.27;100811.31;4867786;29;45137;-81
2023/09/08 05:48:20;;;;;;;;;31.33;30.33;;;;;26.28;59.43;100803.88;4867630;29;45143;-81
2023/09/08 05:50:46;;;;;;;;;31.67;29.33;;;;;26.28;59.72;100807.47;4884920;29;45334;-81
2023/09/08 05:53:11;;;;;;;;;34.00;31.00;;;;;26.33;59.28;100809.97;4867243;29;44907;-81
2023/09/08 05:55:44;;;;;;;;;30.33;29.67;;;;;26.45;59.55;100813.91;4882400;29;45029;-80
2023/09/08 05:58:10;;;;;;;;;31.33;29.67;;;;;26.37;59.24;100818.88;4883319;29;44735;-80
2023/09/08 06:00:36;;;;;;;;;27.33;27.33;;;;;26.38;59.41;100807.00;4884014;29;44948;-82
2023/09/08 06:03:02;;;;;;;;;29.00;27.67;;;;;26.42;59.10;100805.88;4885086;29;44751;-82
2023/09/08 06:15:51;;;;;;;;;29.67;29.67;;;;;26.75;58.83;100819.66;5541075;23;46180;-86
2023/09/08 07:17:59;;;;;;;;;35.33;31.33;;;;;28.75;55.75;100827.63;4855183;23;46911;-81
2023/09/08 07:20:25;;;;;;;;;33.67;30.00;;;;;28.71;55.93;100828.81;4902470;28;45289;-83
2023/09/08 07:22:50;;;;;;;;;30.67;30.00;;;;;28.72;55.78;100820.50;4914653;23;45467;-81
2023/09/08 07:25:17;;;;;;;;;33.00;30.67;;;;;28.87;55.52;100818.66;5152057;23;46906;-82
2023/09/08 07:27:43;;;;;;;;;36.67;31.00;;;;;29.02;55.34;100830.53;4923675;28;45008;-82
2023/09/08 07:30:11;;;;;;;;;34.67;31.67;;;;;29.09;55.11;100833.78;5074667;23;45976;-82
2023/09/08 07:37:51;;;;;;;;;29.33;29.00;;;;;29.52;54.05;100836.59;5727001;23;46240;-80
2023/09/08 07:40:16;;;;;;;;;35.00;32.00;;;;;29.37;54.02;100821.09;4887484;29;44957;-80
2023/09/08 07:47:55;;;;;;;;;20.00;20.00;;;;;29.78;51.99;100836.81;5844435;23;46557;-81
2023/09/08 07:50:27;;;;;;;;;21.33;21.33;;;;;29.84;51.77;100845.50;4912035;29;44694;-81
2023/09/08 08:03:13;;;;;;;;;21.33;20.67;;;;;30.04;50.76;100830.47;4853107;26;44954;-79
2023/09/08 08:05:41;;;;;;;;;23.00;23.00;;;;;30.27;50.90;100830.81;4907785;28;44886;-79
2023/09/08 08:08:10;;;;;;;;;21.67;21.33;;;;;30.31;50.92;100826.91;4909702;28;46838;-80
2023/09/08 08:10:43;;;;;;;;;21.67;21.00;;;;;30.48;50.44;100840.38;4923959;28;44864;-79
2023/09/08 08:13:12;;;;;;;;;21.00;18.00;;;;;30.37;50.58;100815.50;4921828;28;44929;-79
2023/09/08 08:15:44;;;;;;;;;23.33;20.00;;;;;30.41;50.00;100822.56;4922316;28;44920;-80
2023/09/08 08:18:11;;;;;;;;;18.00;17.00;;;;;30.33;50.24;100807.59;4906372;28;47315;-79
2023/09/08 08:20:43;;;;;;;;;17.33;17.33;;;;;30.43;49.90;100804.13;4921700;28;44898;-81
2023/09/08 08:23:14;;;;;;;;;18.00;17.33;;;;;30.66;49.19;100848.31;4892961;29;44816;-80
2023/09/08 08:26:18;;;;;;;;;18.33;18.00;;;;;30.88;49.19;100851.41;4900946;28;44887;-80
2023/09/08 08:28:58;;;;;;;;;18.33;17.00;;;;;30.89;48.98;100850.41;4889247;29;46985;-81
2023/09/08 08:31:27;;;;;;;;;17.33;17.00;;;;;30.77;48.66;100840.22;4906318;28;44924;-80
2023/09/08 08:33:55;;;;;;;;;19.33;19.33;;;;;30.85;48.28;100829.59;4871453;29;44997;-79
2023/09/08 08:42:40;;;;;;;;;17.00;16.00;;;;;31.14;48.24;100859.66;5664755;23;46162;-83
2023/09/08 08:45:21;;;;;;;;;;;;;;;;;;;;;
2023/09/08 08:47:57;;;;;;;;;22.33;19.00;;;;;31.22;47.85;100862.75;4906237;28;65178;-82
2023/09/08 08:50:24;;;;;;;;;21.33;19.67;;;;;31.18;47.99;100854.84;4919559;28;45538;-82
2023/09/08 08:53:43;;;;;;;;;15.67;15.67;;;;;31.41;47.48;100858.69;4916431;28;44889;-83
2023/09/08 08:56:10;;;;;;;;;20.67;19.33;;;;;31.38;48.40;100861.66;4918663;28;44876;-82
2023/09/08 08:58:41;;;;;;;;;18.67;18.33;;;;;31.43;47.41;100857.59;4899456;28;44816;-82
2023/09/08 09:01:20;;;;;;;;;21.33;18.33;;;;;31.40;47.47;100840.44;4917412;28;45534;-82
2023/09/08 09:03:52;;;;;;;;;22.33;19.33;;;;;31.31;48.17;100822.75;4917823;28;44832;-82
2023/09/08 09:06:23;;;;;;;;;16.00;16.00;;;;;31.36;47.35;100836.16;4912319;28;45441;-81
2023/09/08 09:11:51;;;;;;;;;20.00;19.67;;;;;31.48;47.63;100827.06;5008084;23;45482;-82
2023/09/08 09:14:42;;;;;;;;;18.33;18.33;;;;;31.63;46.90;100863.53;4868167;29;44958;-82
2023/09/08 09:17:16;;;;;;;;;18.67;18.67;;;;;31.81;47.58;100861.31;4905265;29;44879;-82
2023/09/08 09:19:50;;;;;;;;;21.67;18.67;;;;;31.77;47.21;100835.91;4870488;29;44852;-81
2023/09/08 09:28:09;;;;;;;;;20.33;18.00;;;;;32.01;46.99;100826.88;5048300;23;44922;-80
2023/09/08 09:30:51;;;;;;;;;20.33;18.00;;;;;32.19;46.71;100849.38;4919145;28;44944;-81
2023/09/08 09:33:20;;;;;;;;;19.00;17.67;;;;;32.15;46.87;100864.38;4919133;28;45551;-82
2023/09/08 09:35:58;;;;;;;;;17.67;17.33;;;;;32.30;46.08;100846.72;4901786;28;44818;-81
2023/09/08 09:38:27;;;;;;;;;16.67;16.67;;;;;32.34;46.92;100850.97;4900180;28;44913;-82
2023/09/08 09:41:03;;;;;;;;;14.33;14.00;;;;;32.35;46.13;100841.72;4903521;28;44908;-81
2023/09/08 09:43:34;;;;;;;;;19.00;17.67;;;;;32.14;46.18;100827.72;4916100;28;46826;-82
2023/09/08 09:46:12;;;;;;;;;17.00;17.00;;;;;32.34;46.24;100833.56;4900289;29;44928;-82
2023/09/08 09:52:13;;;;;;;;;19.33;17.00;;;;;32.59;45.84;100843.63;4898976;29;44873;-80
2023/09/08 09:54:50;;;;;;;;;19.00;16.33;;;;;32.59;45.44;100825.22;4915426;28;46701;-79
2023/09/08 09:57:22;;;;;;;;;17.00;17.00;;;;;32.54;45.97;100818.28;4904319;28;44912;-80
2023/09/08 10:00:01;;;;;;;;;;;;;;;;;;;;;
2023/09/08 10:05:54;;;;;;;;;17.33;16.33;;;;;32.93;44.51;100835.50;4900532;29;45022;-81
2023/09/08 10:08:28;;;;;;;;;14.67;13.67;;;;;32.96;44.78;100796.66;4905236;28;44874;-81
2023/09/08 10:10:55;;;;;;;;;16.00;15.00;;;;;32.91;44.09;100798.94;4905491;29;44773;-81
2023/09/08 10:13:33;;;;;;;;;17.33;14.33;;;;;33.20;44.08;100811.28;4889003;29;44904;-81
2023/09/08 10:16:02;;;;;;;;;18.00;18.00;;;;;33.14;43.75;100798.00;4913383;28;46820;-81
2023/09/08 10:18:29;;;;;;;;;17.67;16.00;;;;;33.35;43.47;100834.00;4896571;29;44890;-82
2023/09/08 10:21:03;;;;;;;;;18.33;17.00;;;;;33.43;43.47;100830.59;4878405;28;45453;-81
2023/09/08 10:23:43;;;;;;;;;15.00;15.00;;;;;33.40;43.43;100800.53;4898125;28;44900;-81
2023/09/08 10:26:16;;;;;;;;;16.67;15.67;;;;;33.41;43.12;100796.75;4881504;28;47247;-81
2023/09/08 10:28:55;;;;;;;;;17.00;17.00;;;;;33.41;43.22;100811.44;4896817;28;44872;-82
2023/09/08 11:20:36;;;;;;;;;14.67;14.67;;;;;34.67;39.57;100808.38;3530558;23;46611;-81
2023/09/08 11:23:04;;;;;;;;;13.33;13.33;;;;;34.56;38.16;100802.84;4897001;28;44981;-85
2023/09/08 11:25:34;;;;;;;;;12.33;11.33;;;;;34.70;38.78;100808.09;4891901;28;45373;-82
2023/09/08 11:28:06;;;;;;;;;16.67;16.67;;;;;34.59;38.94;100814.53;4915442;28;45479;-84
2023/09/08 11:30:33;;;;;;;;;14.67;14.67;;;;;34.69;38.26;100817.41;4904105;28;44686;-81
2023/09/08 11:32:59;;;;;;;;;14.33;13.67;;;;;34.49;38.89;100785.94;5303432;23;46311;-83
2023/09/08 11:35:32;;;;;;;;;15.00;15.00;;;;;34.65;38.25;100807.63;4899450;29;45801;-78
2023/09/08 11:38:00;;;;;;;;;18.00;17.67;;;;;34.61;38.80;100793.16;4888227;29;47210;-78
2023/09/08 11:40:34;;;;;;;;;14.67;13.67;;;;;34.79;37.93;100807.31;4887226;29;44798;-80
2023/09/08 11:46:25;;;;;;;;;14.67;14.67;;;;;34.88;38.73;100800.09;4880779;29;45410;-82
2023/09/08 11:48:51;;;;;;;;;12.67;12.33;;;;;34.90;38.78;100809.13;4861115;29;45558;-82
2023/09/08 11:51:16;;;;;;;;;11.67;11.67;;;;;34.92;38.18;100807.09;4877375;29;45326;-80
2023/09/08 11:53:42;;;;;;;;;15.00;14.00;;;;;35.02;37.92;100801.63;4873530;29;45467;-78
2023/09/08 11:56:08;;;;;;;;;15.33;14.67;;;;;35.00;37.96;100801.75;4885095;29;44948;-77
2023/09/08 12:01:19;;;;;;;;;12.67;11.67;;;;;35.01;37.56;100788.84;4910973;29;45460;-80
2023/09/08 12:04:02;;;;;;;;;13.00;13.00;;;;;35.10;36.83;100779.72;4896017;29;44803;-78
2023/09/08 12:06:30;;;;;;;;;13.00;11.67;;;;;34.95;37.59;100783.84;4894276;28;44891;-77
2023/09/08 12:09:02;;;;;;;;;13.33;13.33;;;;;35.05;37.28;100770.97;4903845;29;45303;-77
2023/09/08 12:11:42;;;;;;;;;10.67;10.67;;;;;35.31;37.12;100779.72;4881411;28;45104;-79
2023/09/08 12:14:10;;;;;;;;;13.33;12.67;;;;;35.04;37.32;100758.16;4900258;29;44889;-77
2023/09/08 12:16:43;;;;;;;;;12.00;12.00;;;;;35.23;35.06;100777.66;4902937;28;44910;-74
2023/09/08 12:19:48;;;;;;;;;11.00;11.00;;;;;35.14;35.87;100761.84;4898888;29;48855;-76
2023/09/08 12:25:06;;;;;;;;;9.33;9.33;;;;;35.03;35.27;100737.06;5747707;23;46468;-77
2023/09/08 12:27:37;;;;;;;;;10.33;10.33;;;;;35.15;35.56;100774.69;4889324;29;44918;-77
2023/09/08 12:30:04;;;;;;;;;10.00;10.00;;;;;34.91;34.82;100749.22;4875821;29;47695;-80
2023/09/08 12:32:36;;;;;;;;;11.33;11.33;;;;;35.22;34.83;100775.88;4960857;23;45683;-82
2023/09/08 12:35:13;;;;;;;;;9.67;9.67;;;;;35.18;35.70;100773.53;4897435;28;44873;-80
2023/09/08 12:37:39;;;;;;;;;11.00;11.00;;;;;35.25;36.09;100778.38;4884490;28;44829;-80
2023/09/08 12:40:26;;;;;;;;;11.00;11.00;;;;;35.42;36.07;100770.47;4895054;29;46327;-81
2023/09/08 12:43:02;;;;;;;;;12.67;12.00;;;;;35.36;35.47;100762.72;4932725;23;44961;-81
2023/09/08 12:45:38;;;;;;;;;11.00;11.00;;;;;35.35;35.46;100761.84;4861757;29;44824;-81
2023/09/08 12:48:03;;;;;;;;;11.33;11.00;;;;;35.30;35.51;100760.50;4869286;29;45150;-79
2023/09/08 12:50:35;;;;;;;;;10.00;8.00;;;;;35.40;34.65;100766.97;4873160;29;46326;-81
2023/09/08 12:53:01;;;;;;;;;10.00;10.00;;;;;35.30;35.44;100755.84;4835335;29;45444;-81
2023/09/08 12:55:30;;;;;;;;;13.00;13.00;;;;;35.48;35.21;100771.78;4835449;29;44983;-80
2023/09/08 12:57:59;;;;;;;;;12.33;12.33;;;;;35.34;35.07;100762.84;4823336;29;44927;-80
2023/09/08 13:00:25;;;;;;;;;10.00;9.67;;;;;35.33;34.68;100757.44;4822297;29;47013;-80
2023/09/08 13:02:50;;;;;;;;;12.00;11.00;;;;;35.33;34.61;100754.69;4839922;29;44886;-80
2023/09/08 13:05:19;;;;;;;;;14.33;13.00;;;;;35.43;33.97;100747.31;4843722;29;45180;-80
2023/09/08 13:07:44;;;;;;;;;13.00;13.00;;;;;35.39;34.75;100748.59;4840218;29;45111;-80
2023/09/08 13:10:19;;;;;;;;;12.00;10.00;;;;;35.60;34.75;100746.66;4840113;29;45541;-82
2023/09/08 15:29:41;;;;;;;;;11.33;11.00;;;;;36.82;33.17;100647.50;4881431;23;45442;-86
2023/09/08 15:32:10;;;;;;;;;12.67;11.67;;;;;36.69;33.31;100637.75;4852566;29;44812;-84
2023/09/08 15:34:56;;;;;;;;;;;;;;;;;;;;;
2023/09/08 15:41:17;;;;;;;;;16.00;13.00;;;;;36.61;32.10;100647.66;4820536;29;45796;-87
2023/09/08 15:43:57;;;;;;;;;;;;;;;;;;;;;
2023/09/08 15:46:32;;;;;;;;;16.00;16.00;;;;;36.33;32.76;100635.59;4839331;29;67968;-85
2023/09/08 15:49:26;;;;;;;;;16.00;15.00;;;;;36.31;33.04;100601.66;4852672;29;44865;-86
2023/09/08 15:52:00;;;;;;;;;15.33;14.00;;;;;36.36;32.86;100628.88;4798093;29;45563;-86
2023/09/08 15:54:26;;;;;;;;;13.67;12.00;;;;;36.26;32.61;100634.47;4786196;29;44947;-86
2023/09/08 15:56:52;;;;;;;;;12.33;11.67;;;;;36.08;32.49;100603.84;4783016;29;45561;-83
2023/09/08 15:59:18;;;;;;;;;13.67;13.33;;;;;36.28;32.32;100639.84;4796282;29;44953;-86
2023/09/08 16:01:50;;;;;;;;;13.33;12.67;;;;;35.95;32.58;100606.91;4782381;29;46913;-87
2023/09/08 16:04:20;;;;;;;;;14.67;14.67;;;;;35.93;33.14;100591.47;4783030;29;44908;-87
2023/09/08 16:06:54;;;;;;;;;13.00;12.33;;;;;35.98;33.04;100631.53;4781337;29;44903;-86
2023/09/08 16:09:41;;;;;;;;;;;;;;;;;;;;;
2023/09/08 16:12:11;;;;;;;;;12.00;12.00;;;;;35.79;33.31;100606.63;4797008;29;74372;-87
2023/09/08 16:15:22;;;;;;;;;12.33;12.33;;;;;36.04;32.84;100627.31;4797608;29;44854;-86
2023/09/08 16:18:05;;;;;;;;;12.67;11.67;;;;;35.88;33.05;100611.28;4797730;29;44873;-86
2023/09/08 16:20:31;;;;;;;;;12.00;12.00;;;;;35.89;33.10;100635.16;4797479;29;44935;-87
2023/09/08 16:23:09;;;;;;;;;13.00;12.00;;;;;35.72;33.44;100588.88;4783593;29;45150;-86
2023/09/08 16:25:37;;;;;;;;;10.33;10.33;;;;;35.91;33.32;100627.59;4799407;29;44971;-87
2023/09/08 16:28:18;;;;;;;;;13.67;12.67;;;;;35.87;33.22;100620.59;4796113;29;45408;-85
2023/09/08 16:30:44;;;;;;;;;10.00;10.00;;;;;35.80;33.54;100625.84;4834352;29;44852;-85
2023/09/08 16:33:09;;;;;;;;;11.33;11.33;;;;;35.84;33.67;100637.50;4846280;29;46920;-86
2023/09/08 16:35:41;;;;;;;;;11.00;11.00;;;;;35.72;33.33;100605.47;4831544;29;45645;-85
2023/09/08 16:38:07;;;;;;;;;11.33;11.33;;;;;35.74;33.16;100631.09;4836702;29;45038;-85
2023/09/08 16:40:39;;;;;;;;;14.00;14.00;;;;;35.64;33.45;100615.31;4846864;29;45106;-86
2023/09/08 16:43:07;;;;;;;;;15.67;12.67;;;;;35.54;33.61;100608.91;4847888;29;45168;-86
2023/09/08 16:45:35;;;;;;;;;13.33;13.33;;;;;35.56;33.63;100601.34;4848123;29;44865;-87